Etusivu
METAR-TAF:

METAR-TAF

Lentoasemat :

Frédéric Chopinin kansainvälinen lentoasema

Varsova, Puola

Leveyspiiri: 52-10N, Pituuspiiri: 020-58E, korkeus merenpinnasta: 106 m

Tämänhetkinen sää

Tämä raportti tehtiin 31 minuuttia sitten, kello 20.30 UTC
Tuuli 6 kn etelästä
Lämpötila 17°C
Kosteus 82%
Ilmanpaine 1018 hPa
Näkyvyys 10 km tai enemmän
ei pilviä alle 1500 m:ssä eikä cumulonimbus-pilviä

METAR: EPWA 182030Z 17006KT CAVOK 17/14 Q1018 NOSIG

Aika: 23:01 (21:01 UTC)

Sääennuste

Tämä raportti tehtiin 31 minuuttia sitten, kello 20.30 UTC
Ennuste voimassa 18. päivästä klo 21 UTC - 19. päivään klo 21 UTC
Tuuli 8 kn etelästä
Näkyvyys 10 km tai enemmän
ei pilviä alle 1500 m:ssä eikä cumulonimbus-pilviä

TAF: EPWA 182030Z 1821/1921 17008KT CAVOK

Säähavainnot ja -ennusteet yli 4000 lentoasemalta (METAR- ja TAF-raportit).

Käytössä olevat sääasemat on merkitty karttaan keltaisilla ja punaisilla pisteillä.

Aseta hiiri pisteen päälle nähdäksesi sääaseman nimen.

Klikkaa sitten nähdäksesi säähavainnot ja -ennusteet.

Kartan vaihtaminen: klikkaa mustalla rastilla varustettuja vihreitä pisteitä, niin voit zoomata sisään; viivalla varustettua vihreää pistettä, niin voit zoomata ulos tai vihreitä nuolia, niin pääset viereisille kartoille.


METAR-TAF: